Time,TemperatureF,DewpointF,PressureIn,WindDirection,WindDirectionDegrees,WindSpeedMPH,WindSpeedGustMPH,Humidity,HourlyPrecipIn,Conditions,Clouds,dailyrainin,SoftwareType,DateUTC
2013-06-23 00:04:00,71.6,66.2,30.12,ENE,58,1.0,2.0,83,0.00,,,0.00,Wunderground v.1.15,2013-06-23 04:04:00,
2013-06-23 00:09:00,71.8,66.4,30.12,ENE,75,2.0,2.0,83,0.00,,,0.00,Wunderground v.1.15,2013-06-23 04:09:00,
2013-06-23 00:14:00,71.6,66.5,30.12,ENE,67,3.0,3.0,84,0.00,,,0.00,Wunderground v.1.15,2013-06-23 04:14:00,
2013-06-23 00:19:00,71.6,66.5,30.12,NE,43,3.0,4.0,84,0.00,,,0.00,Wunderground v.1.15,2013-06-23 04:19:00,
2013-06-23 00:24:00,71.8,66.4,30.12,NNE,16,3.0,4.0,83,0.00,,,0.00,Wunderground v.1.15,2013-06-23 04:24:00,
2013-06-23 00:34:00,72.6,66.4,30.12,NE,42,3.0,5.0,81,0.00,,,0.00,Wunderground v.1.15,2013-06-23 04:34:00,
2013-06-23 00:44:00,72.8,66.6,30.12,North,352,3.0,4.0,81,0.00,,,0.00,Wunderground v.1.15,2013-06-23 04:44:00,
2013-06-23 00:54:00,72.9,66.4,30.12,ENE,76,3.0,6.0,80,0.00,,,0.00,Wunderground v.1.15,2013-06-23 04:54:00,
2013-06-23 00:59:00,72.7,66.5,30.11,NE,43,3.0,3.0,81,0.00,,,0.00,Wunderground v.1.15,2013-06-23 04:59:00,
2013-06-23 01:09:00,72.7,66.5,30.11,ENE,78,2.0,2.0,81,0.00,,,0.00,Wunderground v.1.15,2013-06-23 05:09:00,
2013-06-23 01:19:00,72.4,66.2,30.11,NE,40,1.0,3.0,81,0.00,,,0.00,Wunderground v.1.15,2013-06-23 05:19:00,
2013-06-23 01:24:00,72.3,66.1,30.11,NE,38,2.0,3.0,81,0.00,,,0.00,Wunderground v.1.15,2013-06-23 05:24:00,
2013-06-23 01:34:00,72.2,66.4,30.11,East,88,3.0,5.0,82,0.00,,,0.00,Wunderground v.1.15,2013-06-23 05:34:00,
2013-06-23 01:44:00,72.4,66.2,30.11,NW,319,1.0,4.0,81,0.00,,,0.00,Wunderground v.1.15,2013-06-23 05:44:00,
2013-06-23 01:54:00,72.4,66.2,30.11,East,86,3.0,4.0,81,0.00,,,0.00,Wunderground v.1.15,2013-06-23 05:54:00,
2013-06-23 01:59:00,72.0,66.2,30.10,ENE,63,2.0,3.0,82,0.00,,,0.00,Wunderground v.1.15,2013-06-23 05:59:00,
2013-06-23 02:04:00,72.1,66.3,30.10,NE,36,2.0,4.0,82,0.00,,,0.00,Wunderground v.1.15,2013-06-23 06:04:00,
2013-06-23 02:09:00,72.3,66.1,30.10,NNW,341,3.0,3.0,81,0.00,,,0.00,Wunderground v.1.15,2013-06-23 06:09:00,
2013-06-23 02:19:00,72.7,66.2,30.10,East,96,2.0,2.0,80,0.00,,,0.00,Wunderground v.1.15,2013-06-23 06:19:00,
2013-06-23 02:29:00,71.9,65.8,30.10,ESE,102,0.0,0.0,81,0.00,,,0.00,Wunderground v.1.15,2013-06-23 06:29:00,
2013-06-23 02:39:00,70.9,65.5,30.10,ESE,113,0.0,0.0,83,0.00,,,0.00,Wunderground v.1.15,2013-06-23 06:39:00,
2013-06-23 02:49:00,69.3,65.3,30.10,ESE,120,0.0,0.0,87,0.00,,,0.00,Wunderground v.1.15,2013-06-23 06:49:00,
2013-06-23 02:59:00,68.6,64.9,30.09,ESE,120,0.0,0.0,88,0.00,,,0.00,Wunderground v.1.15,2013-06-23 06:59:00,
2013-06-23 03:09:00,68.6,64.9,30.09,East,99,0.0,0.0,88,0.00,,,0.00,Wunderground v.1.15,2013-06-23 07:09:00,
2013-06-23 03:19:00,68.4,65.0,30.09,East,92,0.0,0.0,89,0.00,,,0.00,Wunderground v.1.15,2013-06-23 07:19:00,
2013-06-23 03:29:00,68.0,65.0,30.09,East,101,0.0,0.0,90,0.00,,,0.00,Wunderground v.1.15,2013-06-23 07:29:00,
2013-06-23 03:39:00,67.9,64.9,30.09,East,101,0.0,0.0,90,0.00,,,0.00,Wunderground v.1.15,2013-06-23 07:39:00,
2013-06-23 03:49:00,67.5,64.8,30.09,East,101,0.0,0.0,91,0.00,,,0.00,Wunderground v.1.15,2013-06-23 07:49:00,
2013-06-23 03:54:00,67.3,64.6,30.09,East,101,0.0,0.0,91,0.00,,,0.00,Wunderground v.1.15,2013-06-23 07:54:00,
2013-06-23 03:59:00,67.2,64.5,30.09,East,101,0.0,0.0,91,0.00,,,0.00,Wunderground v.1.15,2013-06-23 07:59:00,
2013-06-23 04:09:00,67.1,64.7,30.09,ESE,105,0.0,0.0,92,0.00,,,0.00,Wunderground v.1.15,2013-06-23 08:09:00,
2013-06-23 04:14:00,66.2,63.2,30.09,ESE,118,0.0,0.0,90,0.00,,,0.00,Wunderground v.1.15,2013-06-23 08:14:00,
2013-06-23 04:24:00,65.2,63.4,30.09,ESE,118,0.0,1.0,94,0.00,,,0.00,Wunderground v.1.15,2013-06-23 08:24:00,
2013-06-23 04:34:00,65.1,63.6,30.09,ESE,120,0.0,0.0,95,0.00,,,0.00,Wunderground v.1.15,2013-06-23 08:34:00,
2013-06-23 04:44:00,65.0,63.2,30.09,SE,125,0.0,0.0,94,0.00,,,0.00,Wunderground v.1.15,2013-06-23 08:44:00,
2013-06-23 04:54:00,64.7,63.2,30.10,SE,125,0.0,0.0,95,0.00,,,0.00,Wunderground v.1.15,2013-06-23 08:54:00,
2013-06-23 04:59:00,64.6,63.1,30.10,SE,125,0.0,0.0,95,0.00,,,0.00,Wunderground v.1.15,2013-06-23 08:59:00,
2013-06-23 05:09:00,64.6,63.1,30.09,SE,125,0.0,0.0,95,0.00,,,0.00,Wunderground v.1.15,2013-06-23 09:09:00,
2013-06-23 05:19:00,64.5,63.3,30.09,SE,125,0.0,0.0,96,0.00,,,0.00,Wunderground v.1.15,2013-06-23 09:19:00,
2013-06-23 05:29:00,64.0,62.2,30.10,SE,125,1.0,1.0,94,0.00,,,0.00,Wunderground v.1.15,2013-06-23 09:29:00,
2013-06-23 05:39:00,63.4,61.9,30.10,SE,125,0.0,0.0,95,0.00,,,0.00,Wunderground v.1.15,2013-06-23 09:39:00,
2013-06-23 05:49:00,63.4,62.2,30.10,SE,125,0.0,0.0,96,0.00,,,0.00,Wunderground v.1.15,2013-06-23 09:49:00,
2013-06-23 05:59:00,63.5,62.3,30.11,SE,125,0.0,0.0,96,0.00,,,0.00,Wunderground v.1.15,2013-06-23 09:59:00,
2013-06-23 06:09:00,63.4,62.2,30.11,SE,125,0.0,0.0,96,0.00,,,0.00,Wunderground v.1.15,2013-06-23 10:09:00,
2013-06-23 06:19:00,63.3,62.1,30.11,SE,125,0.0,0.0,96,0.00,,,0.00,Wunderground v.1.15,2013-06-23 10:19:00,
2013-06-23 06:24:00,63.4,62.2,30.11,SE,125,0.0,0.0,96,0.00,,,0.00,Wunderground v.1.15,2013-06-23 10:24:00,
2013-06-23 06:34:00,63.7,62.8,30.12,SE,126,0.0,0.0,97,0.00,,,0.00,Wunderground v.1.15,2013-06-23 10:34:00,
2013-06-23 06:44:00,63.7,62.5,30.12,SE,125,0.0,0.0,96,0.00,,,0.00,Wunderground v.1.15,2013-06-23 10:44:00,
2013-06-23 06:49:00,63.9,62.7,30.12,SE,126,0.0,0.0,96,0.00,,,0.00,Wunderground v.1.15,2013-06-23 10:49:00,
2013-06-23 06:59:00,64.4,63.2,30.12,SE,126,1.0,1.0,96,0.00,,,0.00,Wunderground v.1.15,2013-06-23 10:59:00,
2013-06-23 07:09:00,65.4,64.2,30.13,SE,132,1.0,1.0,96,0.00,,,0.00,Wunderground v.1.15,2013-06-23 11:09:00,
2013-06-23 07:19:00,66.2,64.4,30.13,SE,128,0.0,1.0,94,0.00,,,0.00,Wunderground v.1.15,2013-06-23 11:19:00,
2013-06-23 07:29:00,67.1,65.0,30.14,SE,125,0.0,0.0,93,0.00,,,0.00,Wunderground v.1.15,2013-06-23 11:29:00,
2013-06-23 07:39:00,68.0,65.9,30.14,SE,129,0.0,0.0,93,0.00,,,0.00,Wunderground v.1.15,2013-06-23 11:39:00,
2013-06-23 07:49:00,69.3,66.6,30.14,SE,125,0.0,0.0,91,0.00,,,0.00,Wunderground v.1.15,2013-06-23 11:49:00,
2013-06-23 07:59:00,70.3,66.9,30.14,ESE,109,0.0,0.0,89,0.00,,,0.00,Wunderground v.1.15,2013-06-23 11:59:00,
2013-06-23 08:09:00,71.7,66.9,30.14,East,82,1.0,1.0,85,0.00,,,0.00,Wunderground v.1.15,2013-06-23 12:09:00,
2013-06-23 08:14:00,72.0,67.2,30.14,East,86,1.0,2.0,85,0.00,,,0.00,Wunderground v.1.15,2013-06-23 12:14:00,
2013-06-23 08:24:00,73.1,68.0,30.13,East,85,1.0,2.0,84,0.00,,,0.00,Wunderground v.1.15,2013-06-23 12:24:00,
2013-06-23 08:34:00,74.3,68.4,30.14,East,79,2.0,2.0,82,0.00,,,0.00,Wunderground v.1.15,2013-06-23 12:34:00,
2013-06-23 08:44:00,75.7,68.4,30.13,NNW,335,2.0,3.0,78,0.00,,,0.00,Wunderground v.1.15,2013-06-23 12:44:00,
2013-06-23 08:54:00,76.4,68.7,30.14,East,88,3.0,3.0,77,0.00,,,0.00,Wunderground v.1.15,2013-06-23 12:54:00,
2013-06-23 08:59:00,76.5,68.4,30.14,ENE,75,2.0,2.0,76,0.00,,,0.00,Wunderground v.1.15,2013-06-23 12:59:00,
2013-06-23 09:09:00,78.2,69.2,30.14,East,92,1.0,1.0,74,0.00,,,0.00,Wunderground v.1.15,2013-06-23 13:09:00,
2013-06-23 09:14:00,78.6,68.0,30.13,East,80,1.0,1.0,70,0.00,,,0.00,Wunderground v.1.15,2013-06-23 13:14:00,
2013-06-23 09:24:00,78.8,68.6,30.13,NE,55,2.0,2.0,71,0.00,,,0.00,Wunderground v.1.15,2013-06-23 13:24:00,
2013-06-23 09:34:00,79.3,69.5,30.12,East,89,2.0,3.0,72,0.00,,,0.00,Wunderground v.1.15,2013-06-23 13:34:00,
2013-06-23 09:39:00,79.8,69.1,30.12,NE,51,2.0,2.0,70,0.00,,,0.00,Wunderground v.1.15,2013-06-23 13:39:00,
2013-06-23 09:49:00,79.4,68.8,30.12,ENE,72,3.0,3.0,70,0.00,,,0.00,Wunderground v.1.15,2013-06-23 13:49:00,
2013-06-23 09:59:00,79.1,69.3,30.12,NE,42,2.0,3.0,72,0.00,,,0.00,Wunderground v.1.15,2013-06-23 13:59:00,
2013-06-23 10:09:00,79.0,69.2,30.12,SE,129,3.0,3.0,72,0.00,,,0.00,Wunderground v.1.15,2013-06-23 14:09:00,
2013-06-23 10:19:00,79.5,69.7,30.12,East,85,2.0,2.0,72,0.00,,,0.00,Wunderground v.1.15,2013-06-23 14:19:00,
2013-06-23 10:24:00,79.6,69.4,30.11,NW,316,2.0,2.0,71,0.00,,,0.00,Wunderground v.1.15,2013-06-23 14:24:00,
2013-06-23 10:34:00,79.8,70.0,30.11,NE,49,3.0,6.0,72,0.00,,,0.00,Wunderground v.1.15,2013-06-23 14:34:00,
2013-06-23 10:44:00,79.2,69.8,30.12,North,8,3.0,3.0,73,0.00,,,0.00,Wunderground v.1.15,2013-06-23 14:44:00,
2013-06-23 10:54:00,78.7,69.3,30.12,NW,304,4.0,4.0,73,0.00,,,0.00,Wunderground v.1.15,2013-06-23 14:54:00,
2013-06-23 10:59:00,79.1,69.3,30.12,NW,308,3.0,3.0,72,0.00,,,0.00,Wunderground v.1.15,2013-06-23 14:59:00,
2013-06-23 11:09:00,79.9,69.7,30.12,East,84,3.0,3.0,71,0.00,,,0.00,Wunderground v.1.15,2013-06-23 15:09:00,
2013-06-23 11:19:00,81.6,69.6,30.12,ENE,65,3.0,3.0,67,0.00,,,0.00,Wunderground v.1.15,2013-06-23 15:19:00,
2013-06-23 11:29:00,81.4,69.8,30.12,NW,323,3.0,5.0,68,0.00,,,0.00,Wunderground v.1.15,2013-06-23 15:29:00,
2013-06-23 11:39:00,81.1,70.8,30.12,ENE,58,4.0,4.0,71,0.00,,,0.00,Wunderground v.1.15,2013-06-23 15:39:00,
2013-06-23 11:49:00,81.6,70.4,30.12,WNW,285,4.0,6.0,69,0.00,,,0.00,Wunderground v.1.15,2013-06-23 15:49:00,
2013-06-23 11:59:00,81.7,71.4,30.12,NW,320,5.0,6.0,71,0.00,,,0.00,Wunderground v.1.15,2013-06-23 15:59:00,
2013-06-23 12:09:00,81.6,71.3,30.11,NW,314,6.0,7.0,71,0.00,,,0.00,Wunderground v.1.15,2013-06-23 16:09:00,
2013-06-23 12:19:00,82.0,70.4,30.11,NE,40,6.0,6.0,68,0.00,,,0.00,Wunderground v.1.15,2013-06-23 16:19:00,
2013-06-23 12:29:00,82.8,70.3,30.10,WNW,298,5.0,5.0,66,0.00,,,0.00,Wunderground v.1.15,2013-06-23 16:29:00,
2013-06-23 12:39:00,83.0,71.3,30.10,NW,325,5.0,6.0,68,0.00,,,0.00,Wunderground v.1.15,2013-06-23 16:39:00,
2013-06-23 12:49:00,84.0,71.0,30.10,North,351,5.0,5.0,65,0.00,,,0.00,Wunderground v.1.15,2013-06-23 16:49:00,
2013-06-23 12:54:00,83.8,70.8,30.09,NW,318,4.0,5.0,65,0.00,,,0.00,Wunderground v.1.15,2013-06-23 16:54:00,
2013-06-23 12:59:00,83.6,70.6,30.09,NNW,328,4.0,4.0,65,0.00,,,0.00,Wunderground v.1.15,2013-06-23 16:59:00,
2013-06-23 13:04:00,83.6,70.6,30.09,ENE,58,4.0,4.0,65,0.00,,,0.00,Wunderground v.1.15,2013-06-23 17:04:00,
2013-06-23 13:09:00,83.8,70.8,30.09,NNW,342,4.0,6.0,65,0.00,,,0.00,Wunderground v.1.15,2013-06-23 17:09:00,
2013-06-23 13:14:00,83.7,70.7,30.09,NNW,333,4.0,6.0,65,0.00,,,0.00,Wunderground v.1.15,2013-06-23 17:14:00,
2013-06-23 13:19:00,83.7,71.6,30.09,NNW,335,5.0,5.0,67,0.00,,,0.00,Wunderground v.1.15,2013-06-23 17:19:00,
2013-06-23 13:29:00,84.0,71.4,30.08,NNW,342,4.0,6.0,66,0.00,,,0.00,Wunderground v.1.15,2013-06-23 17:29:00,
2013-06-23 13:39:00,85.1,71.1,30.08,NW,314,5.0,6.0,63,0.00,,,0.00,Wunderground v.1.15,2013-06-23 17:39:00,
2013-06-23 13:49:00,85.0,71.5,30.08,North,1,5.0,5.0,64,0.00,,,0.00,Wunderground v.1.15,2013-06-23 17:49:00,
2013-06-23 13:59:00,85.4,70.9,30.07,North,6,6.0,6.0,62,0.00,,,0.00,Wunderground v.1.15,2013-06-23 17:59:00,
2013-06-23 14:04:00,86.1,71.6,30.07,NNW,338,5.0,6.0,62,0.00,,,0.00,Wunderground v.1.15,2013-06-23 18:04:00,
2013-06-23 14:14:00,85.4,70.9,30.06,ENE,58,4.0,4.0,62,0.00,,,0.00,Wunderground v.1.15,2013-06-23 18:14:00,
2013-06-23 14:24:00,86.3,70.8,30.06,NNW,330,4.0,4.0,60,0.00,,,0.00,Wunderground v.1.15,2013-06-23 18:24:00,
2013-06-23 14:34:00,87.4,71.8,30.06,North,352,4.0,5.0,60,0.00,,,0.00,Wunderground v.1.15,2013-06-23 18:34:00,
2013-06-23 14:44:00,87.3,71.7,30.06,NNW,332,5.0,5.0,60,0.00,,,0.00,Wunderground v.1.15,2013-06-23 18:44:00,
2013-06-23 14:54:00,87.0,70.4,30.05,NNW,333,6.0,7.0,58,0.00,,,0.00,Wunderground v.1.15,2013-06-23 18:54:00,
2013-06-23 14:59:00,86.3,70.3,30.05,NW,318,5.0,5.0,59,0.00,,,0.00,Wunderground v.1.15,2013-06-23 18:59:00,
2013-06-23 15:09:00,86.7,71.6,30.05,North,5,5.0,6.0,61,0.00,,,0.00,Wunderground v.1.15,2013-06-23 19:09:00,
2013-06-23 15:19:00,86.6,70.6,30.05,NW,318,5.0,5.0,59,0.00,,,0.00,Wunderground v.1.15,2013-06-23 19:19:00,
2013-06-23 15:29:00,85.9,70.9,30.04,NW,316,5.0,5.0,61,0.00,,,0.00,Wunderground v.1.15,2013-06-23 19:29:00,
2013-06-23 15:34:00,86.4,70.9,30.04,NE,49,5.0,5.0,60,0.00,,,0.00,Wunderground v.1.15,2013-06-23 19:34:00,
2013-06-23 15:44:00,86.6,71.1,30.03,NNW,340,5.0,7.0,60,0.00,,,0.00,Wunderground v.1.15,2013-06-23 19:44:00,
2013-06-23 15:54:00,85.8,70.8,30.03,NW,307,6.0,6.0,61,0.00,,,0.00,Wunderground v.1.15,2013-06-23 19:54:00,
2013-06-23 15:59:00,86.2,70.2,30.03,NW,323,6.0,7.0,59,0.00,,,0.00,Wunderground v.1.15,2013-06-23 19:59:00,
2013-06-23 16:09:00,86.0,69.0,30.03,NW,318,6.0,6.0,57,0.00,,,0.00,Wunderground v.1.15,2013-06-23 20:09:00,
2013-06-23 16:14:00,86.8,68.7,30.03,NNW,342,6.0,7.0,55,0.00,,,0.00,Wunderground v.1.15,2013-06-23 20:14:00,
2013-06-23 16:24:00,88.4,68.5,30.03,ENE,58,4.0,5.0,52,0.00,,,0.00,Wunderground v.1.15,2013-06-23 20:24:00,
2013-06-23 16:34:00,88.8,70.0,30.02,NNW,335,5.0,6.0,54,0.00,,,0.00,Wunderground v.1.15,2013-06-23 20:34:00,
2013-06-23 16:44:00,87.5,69.9,30.02,NE,43,5.0,5.0,56,0.00,,,0.00,Wunderground v.1.15,2013-06-23 20:44:00,
2013-06-23 16:54:00,87.1,70.0,30.02,North,4,4.0,6.0,57,0.00,,,0.00,Wunderground v.1.15,2013-06-23 20:54:00,
2013-06-23 16:59:00,87.6,71.5,30.02,North,360,5.0,6.0,59,0.00,,,0.00,Wunderground v.1.15,2013-06-23 20:59:00,
2013-06-23 17:09:00,86.8,69.7,30.02,NNE,29,5.0,5.0,57,0.00,,,0.00,Wunderground v.1.15,2013-06-23 21:09:00,
2013-06-23 17:19:00,86.1,70.6,30.02,NE,40,6.0,6.0,60,0.00,,,0.00,Wunderground v.1.15,2013-06-23 21:19:00,
2013-06-23 17:29:00,86.5,70.5,30.01,NE,37,4.0,6.0,59,0.00,,,0.00,Wunderground v.1.15,2013-06-23 21:29:00,
2013-06-23 17:39:00,86.3,70.3,30.02,North,8,5.0,5.0,59,0.00,,,0.00,Wunderground v.1.15,2013-06-23 21:39:00,
2013-06-23 17:49:00,85.6,71.1,30.02,ESE,102,3.0,3.0,62,0.00,,,0.00,Wunderground v.1.15,2013-06-23 21:49:00,
2013-06-23 17:59:00,85.2,69.7,30.02,East,97,1.0,1.0,60,0.00,,,0.00,Wunderground v.1.15,2013-06-23 21:59:00,
2013-06-23 18:04:00,85.1,70.1,30.02,East,86,1.0,1.0,61,0.00,,,0.00,Wunderground v.1.15,2013-06-23 22:04:00,
2013-06-23 18:14:00,85.4,69.4,30.01,NE,46,2.0,3.0,59,0.00,,,0.00,Wunderground v.1.15,2013-06-23 22:14:00,
2013-06-23 18:24:00,86.0,71.0,30.01,NE,46,4.0,4.0,61,0.00,,,0.00,Wunderground v.1.15,2013-06-23 22:24:00,
2013-06-23 18:34:00,86.5,71.0,30.01,ENE,74,3.0,4.0,60,0.00,,,0.00,Wunderground v.1.15,2013-06-23 22:34:00,
2013-06-23 18:44:00,86.8,69.7,30.02,ESE,113,1.0,2.0,57,0.00,,,0.00,Wunderground v.1.15,2013-06-23 22:44:00,
2013-06-23 18:54:00,86.4,72.3,30.02,ENE,75,2.0,2.0,63,0.00,,,0.00,Wunderground v.1.15,2013-06-23 22:54:00,
2013-06-23 18:59:00,85.8,70.3,30.02,East,100,1.0,1.0,60,0.00,,,0.00,Wunderground v.1.15,2013-06-23 22:59:00,
2013-06-23 19:04:00,85.4,69.9,30.02,East,99,0.0,1.0,60,0.00,,,0.00,Wunderground v.1.15,2013-06-23 23:04:00,
2013-06-23 19:14:00,83.9,71.3,30.02,ENE,72,2.0,2.0,66,0.00,,,0.00,Wunderground v.1.15,2013-06-23 23:14:00,
2013-06-23 19:24:00,82.1,71.3,30.02,NNE,30,2.0,2.0,70,0.00,,,0.00,Wunderground v.1.15,2013-06-23 23:24:00,
2013-06-23 19:29:00,81.4,71.5,30.02,ENE,68,2.0,3.0,72,0.00,,,0.00,Wunderground v.1.15,2013-06-23 23:29:00,
2013-06-23 19:39:00,80.5,71.0,30.02,ENE,65,2.0,2.0,73,0.00,,,0.00,Wunderground v.1.15,2013-06-23 23:39:00,
2013-06-23 19:49:00,79.9,70.5,30.03,East,91,1.0,1.0,73,0.00,,,0.00,Wunderground v.1.15,2013-06-23 23:49:00,
2013-06-23 19:59:00,79.1,70.5,30.03,East,91,0.0,0.0,75,0.00,,,0.00,Wunderground v.1.15,2013-06-23 23:59:00,
2013-06-23 20:09:00,78.6,70.8,30.03,East,92,0.0,0.0,77,0.00,,,0.00,Wunderground v.1.15,2013-06-24 00:09:00,
2013-06-23 20:14:00,78.7,70.9,30.03,East,91,0.0,0.0,77,0.00,,,0.00,Wunderground v.1.15,2013-06-24 00:14:00,
2013-06-23 20:24:00,78.4,70.6,30.03,East,93,0.0,0.0,77,0.00,,,0.00,Wunderground v.1.15,2013-06-24 00:24:00,
2013-06-23 20:34:00,77.5,70.5,30.04,East,94,0.0,0.0,79,0.00,,,0.00,Wunderground v.1.15,2013-06-24 00:34:00,
2013-06-23 20:44:00,76.6,70.0,30.04,East,93,0.0,0.0,80,0.00,,,0.00,Wunderground v.1.15,2013-06-24 00:44:00,
2013-06-23 20:54:00,75.9,69.6,30.04,East,94,0.0,0.0,81,0.00,,,0.00,Wunderground v.1.15,2013-06-24 00:54:00,
2013-06-23 20:59:00,75.6,69.4,30.04,East,95,0.0,0.0,81,0.00,,,0.00,Wunderground v.1.15,2013-06-24 00:59:00,
2013-06-23 21:09:00,74.9,68.7,30.04,East,84,0.0,0.0,81,0.00,,,0.00,Wunderground v.1.15,2013-06-24 01:09:00,
2013-06-23 21:19:00,75.1,69.2,30.04,East,96,0.0,0.0,82,0.00,,,0.00,Wunderground v.1.15,2013-06-24 01:19:00,
2013-06-23 21:29:00,74.7,68.5,30.05,East,96,0.0,0.0,81,0.00,,,0.00,Wunderground v.1.15,2013-06-24 01:29:00,
2013-06-23 21:39:00,74.3,67.7,30.05,East,94,0.0,1.0,80,0.00,,,0.00,Wunderground v.1.15,2013-06-24 01:39:00,
2013-06-23 21:49:00,74.3,67.7,30.06,East,95,0.0,0.0,80,0.00,,,0.00,Wunderground v.1.15,2013-06-24 01:49:00,
2013-06-23 21:59:00,73.8,67.2,30.06,East,96,0.0,0.0,80,0.00,,,0.00,Wunderground v.1.15,2013-06-24 01:59:00,
2013-06-23 22:09:00,73.2,68.1,30.06,East,83,0.0,0.0,84,0.00,,,0.00,Wunderground v.1.15,2013-06-24 02:09:00,
2013-06-23 22:19:00,72.4,68.0,30.06,East,91,0.0,0.0,86,0.00,,,0.00,Wunderground v.1.15,2013-06-24 02:19:00,
2013-06-23 22:24:00,72.0,67.6,30.07,East,91,0.0,0.0,86,0.00,,,0.00,Wunderground v.1.15,2013-06-24 02:24:00,
2013-06-23 22:34:00,71.5,67.4,30.07,ESE,105,0.0,0.0,87,0.00,,,0.00,Wunderground v.1.15,2013-06-24 02:34:00,
2013-06-23 22:44:00,70.7,67.3,30.07,ESE,105,0.0,0.0,89,0.00,,,0.00,Wunderground v.1.15,2013-06-24 02:44:00,
2013-06-23 22:54:00,70.7,67.6,30.07,ESE,108,0.0,0.0,90,0.00,,,0.00,Wunderground v.1.15,2013-06-24 02:54:00,
2013-06-23 22:59:00,70.5,67.4,30.08,ESE,105,0.0,0.0,90,0.00,,,0.00,Wunderground v.1.15,2013-06-24 02:59:00,
2013-06-23 23:04:00,70.3,67.5,30.08,ESE,106,0.0,0.0,91,0.00,,,0.00,Wunderground v.1.15,2013-06-24 03:04:00,
2013-06-23 23:14:00,70.1,67.0,30.08,ESE,106,0.0,0.0,90,0.00,,,0.00,Wunderground v.1.15,2013-06-24 03:14:00,
2013-06-23 23:24:00,69.7,67.0,30.08,ESE,108,0.0,0.0,91,0.00,,,0.00,Wunderground v.1.15,2013-06-24 03:24:00,
2013-06-23 23:34:00,69.5,67.1,30.08,ESE,108,0.0,0.0,92,0.00,,,0.00,Wunderground v.1.15,2013-06-24 03:34:00,
2013-06-23 23:44:00,69.2,66.8,30.08,ESE,108,0.0,0.0,92,0.00,,,0.00,Wunderground v.1.15,2013-06-24 03:44:00,
2013-06-23 23:49:00,69.1,66.7,30.08,ESE,107,0.0,0.0,92,0.00,,,0.00,Wunderground v.1.15,2013-06-24 03:49:00,
2013-06-23 23:59:00,68.7,66.6,30.08,ESE,115,0.0,1.0,93,0.00,,,0.00,Wunderground v.1.15,2013-06-24 03:59:00,